createdAt,value
2014-08-04T00:00:05.210Z,100009
2014-08-04T00:00:23.507Z,100012
2014-08-04T00:00:41.790Z,100006
2014-08-04T00:01:00.071Z,100009
2014-08-04T00:01:18.353Z,100018
2014-08-04T00:01:36.634Z,100018
2014-08-04T00:01:54.933Z,100018
2014-08-04T00:02:13.198Z,100018
2014-08-04T00:02:31.495Z,100020
2014-08-04T00:02:49.778Z,100018
2014-08-04T00:03:08.278Z,100015
2014-08-04T00:03:26.357Z,100023
2014-08-04T00:03:44.638Z,100020
2014-08-04T00:04:02.937Z,100023
2014-08-04T00:04:21.218Z,100018
2014-08-04T00:04:39.499Z,100018
2014-08-04T00:04:57.782Z,100023
2014-08-04T00:05:16.064Z,100023
2014-08-04T00:05:34.345Z,100020
2014-08-04T00:05:52.626Z,100026
2014-08-04T00:06:10.925Z,100029
2014-08-04T00:06:29.206Z,100029
2014-08-04T00:06:47.691Z,100026
2014-08-04T00:07:05.771Z,100029
2014-08-04T00:07:24.068Z,100029
2014-08-04T00:07:42.333Z,100029
2014-08-04T00:08:00.630Z,100038
2014-08-04T00:08:18.913Z,100032
2014-08-04T00:08:37.413Z,100032
2014-08-04T00:08:55.492Z,100032
2014-08-04T00:09:13.775Z,100035
2014-08-04T00:09:32.056Z,100035
2014-08-04T00:09:50.353Z,100023
2014-08-04T00:10:08.634Z,100038
2014-08-04T00:10:26.917Z,100029
2014-08-04T00:10:45.199Z,100032
2014-08-04T00:11:03.480Z,100035
2014-08-04T00:11:21.763Z,100032
2014-08-04T00:11:40.044Z,100035
2014-08-04T00:11:58.341Z,100029
2014-08-04T00:12:16.623Z,100029
2014-08-04T00:12:34.906Z,100032
2014-08-04T00:12:53.390Z,100026
2014-08-04T00:13:11.468Z,100032
2014-08-04T00:13:29.752Z,100032
2014-08-04T00:13:48.048Z,100029
2014-08-04T00:14:06.533Z,100032
2014-08-04T00:14:24.814Z,100026
2014-08-04T00:14:42.910Z,100023
2014-08-04T00:15:01.394Z,100032
2014-08-04T00:15:19.472Z,100020
2014-08-04T00:15:37.756Z,100032
2014-08-04T00:15:56.052Z,100020
2014-08-04T00:16:14.334Z,100026
2014-08-04T00:16:32.615Z,100018
2014-08-04T00:16:50.914Z,100026
2014-08-04T00:17:09.398Z,100026
2014-08-04T00:17:27.695Z,100026
2014-08-04T00:17:45.776Z,100026
2014-08-04T00:18:04.057Z,100032
2014-08-04T00:18:22.339Z,100029
2014-08-04T00:18:40.620Z,100026
2014-08-04T00:18:58.918Z,100032
2014-08-04T00:19:17.199Z,100026
2014-08-04T00:19:35.496Z,100015
2014-08-04T00:19:53.983Z,100023
2014-08-04T00:20:12.061Z,100026
2014-08-04T00:20:30.343Z,100023
2014-08-04T00:20:48.624Z,100026
2014-08-04T00:21:06.922Z,100038
2014-08-04T00:21:25.203Z,100029
2014-08-04T00:21:43.500Z,100029
2014-08-04T00:22:01.769Z,100026
2014-08-04T00:22:20.065Z,100035
2014-08-04T00:22:38.347Z,100026
2014-08-04T00:22:56.628Z,100035
2014-08-04T00:23:15.129Z,100038
2014-08-04T00:23:33.207Z,100032
2014-08-04T00:23:51.488Z,100026
2014-08-04T00:24:09.788Z,100035
2014-08-04T00:24:28.069Z,100029
2014-08-04T00:24:46.554Z,100040
2014-08-04T00:25:04.632Z,100035
2014-08-04T00:25:23.117Z,100035
2014-08-04T00:25:41.211Z,100046
2014-08-04T00:25:59.492Z,100040
2014-08-04T00:26:17.777Z,100040
2014-08-04T00:26:36.058Z,100035
2014-08-04T00:26:54.355Z,100040
2014-08-04T00:27:12.636Z,100038
2014-08-04T00:27:30.934Z,100040
2014-08-04T00:27:49.215Z,100029
2014-08-04T00:28:07.496Z,100035
2014-08-04T00:28:25.781Z,100046
2014-08-04T00:28:44.062Z,100038
2014-08-04T00:29:02.343Z,100035
2014-08-04T00:29:20.624Z,100035
2014-08-04T00:29:38.908Z,100046
2014-08-04T00:29:57.189Z,100046
2014-08-04T00:30:15.486Z,100032
2014-08-04T00:30:33.769Z,100038
2014-08-04T00:30:52.269Z,100043
2014-08-04T00:31:10.347Z,100040
2014-08-04T00:31:28.831Z,100043
2014-08-04T00:31:46.912Z,100040
2014-08-04T00:32:05.208Z,100038
2014-08-04T00:32:23.490Z,100043
2014-08-04T00:32:41.774Z,100035
2014-08-04T00:33:00.071Z,100040
2014-08-04T00:33:18.352Z,100043
2014-08-04T00:33:36.836Z,100035
2014-08-04T00:33:54.916Z,100038
2014-08-04T00:34:13.212Z,100052
2014-08-04T00:34:31.478Z,100046
2014-08-04T00:34:49.980Z,100038
2014-08-04T00:35:08.058Z,100046
2014-08-04T00:35:26.339Z,100049
2014-08-04T00:35:44.636Z,100058
2014-08-04T00:36:02.921Z,100046
2014-08-04T00:36:21.405Z,100043
2014-08-04T00:36:39.702Z,100055
2014-08-04T00:36:57.781Z,100043
2014-08-04T00:37:16.265Z,100040
2014-08-04T00:37:34.343Z,100046
2014-08-04T00:37:52.640Z,100049
2014-08-04T00:38:10.925Z,100049
2014-08-04T00:38:29.206Z,100055
2014-08-04T00:38:47.690Z,100052
2014-08-04T00:39:05.769Z,100049
2014-08-04T00:39:24.066Z,100049
2014-08-04T00:39:42.347Z,100040
2014-08-04T00:40:00.629Z,100043
2014-08-04T00:40:18.929Z,100049
2014-08-04T00:40:37.210Z,100049
2014-08-04T00:40:55.491Z,100046
2014-08-04T00:41:13.773Z,100046
2014-08-04T00:41:32.070Z,100046
2014-08-04T00:41:50.351Z,100049
2014-08-04T00:42:08.633Z,100043
2014-08-04T00:42:27.120Z,100043
2014-08-04T00:42:45.198Z,100055
2014-08-04T00:43:03.495Z,100055
2014-08-04T00:43:21.981Z,100040
2014-08-04T00:43:40.060Z,100046
2014-08-04T00:43:58.341Z,100049
2014-08-04T00:44:16.622Z,100038
2014-08-04T00:44:34.904Z,100043
2014-08-04T00:44:53.201Z,100055
2014-08-04T00:45:11.482Z,100038
2014-08-04T00:45:29.782Z,100043
2014-08-04T00:45:48.048Z,100043
2014-08-04T00:46:06.329Z,100040
2014-08-04T00:46:24.626Z,100040
2014-08-04T00:46:42.894Z,100040
2014-08-04T00:47:01.191Z,100052
2014-08-04T00:47:19.675Z,100052
2014-08-04T00:47:37.755Z,100061
2014-08-04T00:47:56.036Z,100040
2014-08-04T00:48:14.333Z,100046
2014-08-04T00:48:32.802Z,100055
2014-08-04T00:48:50.882Z,100055
2014-08-04T00:49:09.179Z,100049
2014-08-04T00:49:27.460Z,100049
2014-08-04T00:49:45.947Z,100043
2014-08-04T00:50:04.025Z,100049
2014-08-04T00:50:22.306Z,100046
2014-08-04T00:50:40.587Z,100038
2014-08-04T00:50:58.886Z,100043
2014-08-04T00:51:17.136Z,100046
2014-08-04T00:51:35.449Z,100043
2014-08-04T00:51:53.732Z,100046
2014-08-04T00:52:12.013Z,100058
2014-08-04T00:52:30.310Z,100049
2014-08-04T00:52:48.591Z,100038
2014-08-04T00:53:06.874Z,100043
2014-08-04T00:53:25.156Z,100040
2014-08-04T00:53:43.437Z,100052
2014-08-04T00:54:01.720Z,100043
2014-08-04T00:54:20.001Z,100049
2014-08-04T00:54:38.298Z,100040
2014-08-04T00:54:56.580Z,100049
2014-08-04T00:55:14.863Z,100040
2014-08-04T00:55:33.160Z,100046
2014-08-04T00:55:51.425Z,100055
2014-08-04T00:56:09.724Z,100049
2014-08-04T00:56:28.005Z,100046
2014-08-04T00:56:46.287Z,100040
2014-08-04T00:57:04.568Z,100058
2014-08-04T00:57:22.867Z,100055
2014-08-04T00:57:41.148Z,100046
2014-08-04T00:57:59.429Z,100043
2014-08-04T00:58:17.713Z,100055
2014-08-04T00:58:36.197Z,100055
2014-08-04T00:58:54.291Z,100055
2014-08-04T00:59:12.572Z,100043
2014-08-04T00:59:30.855Z,100046
2014-08-04T00:59:49.136Z,100049
2014-08-04T01:00:07.418Z,100055
2014-08-04T01:00:25.718Z,100049
2014-08-04T01:00:43.999Z,100052
2014-08-04T01:01:02.280Z,100055
2014-08-04T01:01:20.561Z,100058
2014-08-04T01:01:39.047Z,100052
2014-08-04T01:01:57.125Z,100052
2014-08-04T01:02:15.422Z,100058
2014-08-04T01:02:33.705Z,100052
2014-08-04T01:02:51.971Z,100061
2014-08-04T01:03:10.471Z,100052
2014-08-04T01:03:28.549Z,100055
2014-08-04T01:03:46.833Z,100058
2014-08-04T01:04:05.130Z,100049
2014-08-04T01:04:23.411Z,100046
2014-08-04T01:04:41.693Z,100055
2014-08-04T01:04:59.975Z,100061
2014-08-04T01:05:18.271Z,100052
2014-08-04T01:05:36.553Z,100049
2014-08-04T01:05:54.837Z,100049
2014-08-04T01:06:13.321Z,100043
2014-08-04T01:06:31.415Z,100049
2014-08-04T01:06:49.698Z,100046
2014-08-04T01:07:07.980Z,100043
2014-08-04T01:07:26.276Z,100058
2014-08-04T01:07:44.558Z,100049
2014-08-04T01:08:02.841Z,100052
2014-08-04T01:08:21.122Z,100058
2014-08-04T01:08:39.419Z,100049
2014-08-04T01:08:57.702Z,100043
2014-08-04T01:09:15.984Z,100043
2014-08-04T01:09:34.265Z,100058
2014-08-04T01:09:52.765Z,100058
2014-08-04T01:10:11.048Z,100049
2014-08-04T01:10:29.126Z,100052
2014-08-04T01:10:47.423Z,100046
2014-08-04T01:11:05.706Z,100061
2014-08-04T01:11:23.988Z,100061
2014-08-04T01:11:42.284Z,100052
2014-08-04T01:12:00.566Z,100069
2014-08-04T01:12:18.865Z,100049
2014-08-04T01:12:37.115Z,100058
2014-08-04T01:12:55.427Z,100061
2014-08-04T01:13:13.710Z,100061
2014-08-04T01:13:31.992Z,100055
2014-08-04T01:13:50.288Z,100055
2014-08-04T01:14:08.570Z,100046
2014-08-04T01:14:26.853Z,100061
2014-08-04T01:14:45.134Z,100066
2014-08-04T01:15:03.431Z,100055
2014-08-04T01:15:21.917Z,100058
2014-08-04T01:15:39.996Z,100061
2014-08-04T01:15:58.277Z,100055
2014-08-04T01:16:16.558Z,100055
2014-08-04T01:16:34.857Z,100049
2014-08-04T01:16:53.138Z,100055
2014-08-04T01:17:11.623Z,100066
2014-08-04T01:17:29.703Z,100049
2014-08-04T01:17:48.000Z,100058
2014-08-04T01:18:06.281Z,100049
2014-08-04T01:18:24.562Z,100055
2014-08-04T01:18:42.845Z,100055
2014-08-04T01:19:01.127Z,100055
2014-08-04T01:19:19.423Z,100058
2014-08-04T01:19:37.910Z,100049
2014-08-04T01:19:56.191Z,100055
2014-08-04T01:20:14.285Z,100055
2014-08-04T01:20:32.566Z,100055
2014-08-04T01:20:50.849Z,100055
2014-08-04T01:21:09.146Z,100058
2014-08-04T01:21:27.427Z,100049
2014-08-04T01:21:45.711Z,100055
2014-08-04T01:22:04.008Z,100055
2014-08-04T01:22:22.289Z,100046
2014-08-04T01:22:40.572Z,100049
2014-08-04T01:22:58.853Z,100046
2014-08-04T01:23:17.135Z,100049
2014-08-04T01:23:35.431Z,100040
2014-08-04T01:23:53.699Z,100049
2014-08-04T01:24:11.996Z,100043
2014-08-04T01:24:30.277Z,100043
2014-08-04T01:24:48.560Z,100046
2014-08-04T01:25:06.842Z,100040
2014-08-04T01:25:25.342Z,100049
2014-08-04T01:25:43.420Z,100043
2014-08-04T01:26:01.907Z,100043
2014-08-04T01:26:20.204Z,100038
2014-08-04T01:26:38.282Z,100038
2014-08-04T01:26:56.565Z,100049
2014-08-04T01:27:14.847Z,100043
2014-08-04T01:27:33.128Z,100038
2014-08-04T01:27:51.425Z,100046
2014-08-04T01:28:09.707Z,100046
2014-08-04T01:28:28.191Z,100046
2014-08-04T01:28:46.270Z,100040
2014-08-04T01:29:04.569Z,100043
2014-08-04T01:29:22.851Z,100043
2014-08-04T01:29:41.132Z,100049
2014-08-04T01:29:59.413Z,100043
2014-08-04T01:30:17.899Z,100049
2014-08-04T01:30:39.602Z,100043
2014-08-04T01:30:57.883Z,100049
2014-08-04T01:31:16.369Z,100049
2014-08-04T01:31:34.447Z,100043
2014-08-04T01:31:52.729Z,100040
2014-08-04T01:32:11.232Z,100046
2014-08-04T01:32:29.310Z,100052
2014-08-04T01:32:47.591Z,100049
2014-08-04T01:33:05.872Z,100035
2014-08-04T01:33:24.155Z,100043
2014-08-04T01:33:42.436Z,100049
2014-08-04T01:34:00.717Z,100043
2014-08-04T01:34:19.000Z,100049
2014-08-04T01:34:37.297Z,100043
2014-08-04T01:34:55.563Z,100052
2014-08-04T01:35:13.860Z,100049
2014-08-04T01:35:32.143Z,100049
2014-08-04T01:35:50.424Z,100043
2014-08-04T01:36:08.705Z,100055
2014-08-04T01:36:26.990Z,100055
2014-08-04T01:36:45.287Z,100052
2014-08-04T01:37:03.568Z,100055
2014-08-04T01:37:21.849Z,100055
2014-08-04T01:37:40.131Z,100058
2014-08-04T01:37:58.413Z,100066
2014-08-04T01:38:16.694Z,100049
2014-08-04T01:38:34.994Z,100055
2014-08-04T01:38:53.275Z,100061
2014-08-04T01:39:11.556Z,100049
2014-08-04T01:39:29.853Z,100055
2014-08-04T01:39:48.121Z,100061
2014-08-04T01:40:06.418Z,100052
2014-08-04T01:40:24.699Z,100066
2014-08-04T01:40:42.982Z,100061
2014-08-04T01:41:01.263Z,100061
2014-08-04T01:41:19.545Z,100055
2014-08-04T01:41:37.841Z,100052
2014-08-04T01:41:56.125Z,100055
2014-08-04T01:42:14.406Z,100066
2014-08-04T01:42:32.687Z,100058
2014-08-04T01:42:50.970Z,100055
2014-08-04T01:43:09.252Z,100058
2014-08-04T01:43:27.533Z,100055
2014-08-04T01:43:45.830Z,100061
2014-08-04T01:44:04.097Z,100058
2014-08-04T01:44:22.394Z,100052
2014-08-04T01:44:40.676Z,100049
2014-08-04T01:44:58.959Z,100055
2014-08-04T01:45:17.240Z,100058
2014-08-04T01:45:35.521Z,100055
2014-08-04T01:45:53.818Z,100055
2014-08-04T01:46:12.086Z,100061
2014-08-04T01:46:30.367Z,100061
2014-08-04T01:46:48.867Z,100058
2014-08-04T01:47:06.947Z,100058
2014-08-04T01:47:25.228Z,100055
2014-08-04T01:47:43.510Z,100066
2014-08-04T01:48:01.807Z,100061
2014-08-04T01:48:20.090Z,100055
2014-08-04T01:48:38.371Z,100049
2014-08-04T01:48:56.652Z,100058
2014-08-04T01:49:14.936Z,100061
2014-08-04T01:49:33.232Z,100055
2014-08-04T01:49:51.514Z,100061
2014-08-04T01:50:09.795Z,100066
2014-08-04T01:50:28.078Z,100052
2014-08-04T01:50:46.578Z,100063
2014-08-04T01:51:04.656Z,100055
2014-08-04T01:51:22.940Z,100055
2014-08-04T01:51:41.221Z,100061
2014-08-04T01:51:59.705Z,100061
2014-08-04T01:52:17.783Z,100052
2014-08-04T01:52:36.082Z,100055
2014-08-04T01:52:54.363Z,100061
2014-08-04T01:53:12.645Z,100055
2014-08-04T01:53:30.929Z,100058
2014-08-04T01:53:49.210Z,100061
2014-08-04T01:54:07.507Z,100052
2014-08-04T01:54:25.773Z,100055
2014-08-04T01:54:44.056Z,100049
2014-08-04T01:55:02.337Z,100049
2014-08-04T01:55:20.634Z,100040
2014-08-04T01:55:38.917Z,100055
2014-08-04T01:55:57.199Z,100049
2014-08-04T01:56:15.480Z,100040
2014-08-04T01:56:33.777Z,100049
2014-08-04T01:56:52.262Z,100043
2014-08-04T01:57:10.340Z,100049
2014-08-04T01:57:28.621Z,100049
2014-08-04T01:57:46.905Z,100052
2014-08-04T01:58:05.405Z,100052
2014-08-04T01:58:23.483Z,100049
2014-08-04T01:58:41.766Z,100052
2014-08-04T01:59:00.047Z,100055
2014-08-04T01:59:18.344Z,100055
2014-08-04T01:59:36.610Z,100052
2014-08-04T01:59:54.910Z,100049
2014-08-04T02:00:13.175Z,100043
2014-08-04T02:00:31.472Z,100046
2014-08-04T02:00:49.755Z,100046
2014-08-04T02:01:08.037Z,100049
2014-08-04T02:01:26.521Z,100052
2014-08-04T02:01:44.599Z,100052
2014-08-04T02:02:03.100Z,100043
2014-08-04T02:02:21.178Z,100049
2014-08-04T02:02:39.460Z,100038
2014-08-04T02:02:57.743Z,100046
2014-08-04T02:03:16.024Z,100040
2014-08-04T02:03:34.321Z,100038
2014-08-04T02:03:52.587Z,100043
2014-08-04T02:04:10.886Z,100049
2014-08-04T02:04:29.168Z,100055
2014-08-04T02:04:47.449Z,100038
2014-08-04T02:05:05.732Z,100038
2014-08-04T02:05:24.013Z,100038
2014-08-04T02:05:42.295Z,100049
2014-08-04T02:06:00.576Z,100055
2014-08-04T02:06:18.858Z,100043
2014-08-04T02:06:37.139Z,100049
2014-08-04T02:06:55.624Z,100046
2014-08-04T02:07:13.721Z,100043
2014-08-04T02:07:32.002Z,100040
2014-08-04T02:07:50.283Z,100049
2014-08-04T02:08:08.767Z,100040
2014-08-04T02:08:26.848Z,100052
2014-08-04T02:08:45.129Z,100046
2014-08-04T02:09:03.410Z,100046
2014-08-04T02:09:21.709Z,100043
2014-08-04T02:09:39.990Z,100049
2014-08-04T02:09:58.271Z,100049
2014-08-04T02:10:16.756Z,100046
2014-08-04T02:10:34.852Z,100046
2014-08-04T02:10:53.117Z,100046
2014-08-04T02:11:11.414Z,100058
2014-08-04T02:11:29.682Z,100055
2014-08-04T02:11:47.979Z,100049
2014-08-04T02:12:06.260Z,100061
2014-08-04T02:12:24.541Z,100052
2014-08-04T02:12:42.824Z,100052
2014-08-04T02:13:01.324Z,100046
2014-08-04T02:13:19.402Z,100058
2014-08-04T02:13:37.686Z,100049
2014-08-04T02:13:55.967Z,100052
2014-08-04T02:14:14.248Z,100049
2014-08-04T02:14:32.545Z,100055
2014-08-04T02:14:51.031Z,100049
2014-08-04T02:15:09.110Z,100058
2014-08-04T02:15:27.406Z,100055
2014-08-04T02:15:45.894Z,100052
2014-08-04T02:16:03.972Z,100058
2014-08-04T02:16:22.253Z,100061
2014-08-04T02:16:40.534Z,100049
2014-08-04T02:16:58.818Z,100049
2014-08-04T02:17:17.068Z,100055
2014-08-04T02:17:35.380Z,100052
2014-08-04T02:17:53.662Z,100049
2014-08-04T02:18:11.944Z,100046
2014-08-04T02:18:30.241Z,100052
2014-08-04T02:18:48.522Z,100046
2014-08-04T02:19:07.008Z,100046
2014-08-04T02:19:25.086Z,100040
2014-08-04T02:19:43.368Z,100040
2014-08-04T02:20:01.652Z,100038
2014-08-04T02:20:19.933Z,100043
2014-08-04T02:20:38.230Z,100049
2014-08-04T02:20:56.511Z,100046
2014-08-04T02:21:14.793Z,100046
2014-08-04T02:21:33.075Z,100040
2014-08-04T02:21:51.356Z,100043
2014-08-04T02:22:09.655Z,100035
2014-08-04T02:22:27.936Z,100040
2014-08-04T02:22:46.217Z,100032
2014-08-04T02:23:04.499Z,100049
2014-08-04T02:23:22.783Z,100043
2014-08-04T02:23:41.080Z,100049
2014-08-04T02:23:59.361Z,100043
2014-08-04T02:24:17.643Z,100052
2014-08-04T02:24:35.924Z,100046
2014-08-04T02:24:54.424Z,100040
2014-08-04T02:25:12.503Z,100052
2014-08-04T02:25:30.786Z,100055
2014-08-04T02:25:49.067Z,100046
2014-08-04T02:26:07.348Z,100052
2014-08-04T02:26:25.648Z,100049
2014-08-04T02:26:43.929Z,100040
2014-08-04T02:27:02.195Z,100046
2014-08-04T02:27:20.492Z,100046
2014-08-04T02:27:38.774Z,100049
2014-08-04T02:27:57.259Z,100043
2014-08-04T02:28:15.337Z,100043
2014-08-04T02:28:33.621Z,100043
2014-08-04T02:28:51.918Z,100052
2014-08-04T02:29:10.199Z,100052
2014-08-04T02:29:28.480Z,100046
2014-08-04T02:29:46.779Z,100049
2014-08-04T02:30:05.060Z,100046
2014-08-04T02:30:23.342Z,100052
2014-08-04T02:30:41.828Z,100052
2014-08-04T02:30:59.906Z,100046
2014-08-04T02:31:18.203Z,100052
2014-08-04T02:31:36.484Z,100049
2014-08-04T02:31:54.768Z,100049
2014-08-04T02:32:13.064Z,100055
2014-08-04T02:32:31.346Z,100052
2014-08-04T02:32:49.832Z,100052
2014-08-04T02:33:07.910Z,100061
2014-08-04T02:33:26.191Z,100046
2014-08-04T02:33:44.473Z,100046
2014-08-04T02:34:02.756Z,100052
2014-08-04T02:34:21.240Z,100061
2014-08-04T02:34:39.522Z,100052
2014-08-04T02:34:57.617Z,100058
2014-08-04T02:35:15.899Z,100058
2014-08-04T02:35:34.180Z,100063
2014-08-04T02:35:52.461Z,100055
2014-08-04T02:36:10.760Z,100055
2014-08-04T02:36:29.041Z,100058
2014-08-04T02:36:47.322Z,100058
2014-08-04T02:37:05.621Z,100055
2014-08-04T02:37:23.903Z,100058
2014-08-04T02:37:42.168Z,100055
2014-08-04T02:38:00.668Z,100040
2014-08-04T02:38:18.748Z,100049
2014-08-04T02:38:37.014Z,100052
2014-08-04T02:38:55.295Z,100049
2014-08-04T02:39:13.578Z,100058
2014-08-04T02:39:31.875Z,100040
2014-08-04T02:39:50.141Z,100058
2014-08-04T02:40:08.422Z,100052
2014-08-04T02:40:26.721Z,100055
2014-08-04T02:40:45.002Z,100055
2014-08-04T02:41:03.284Z,100058
2014-08-04T02:41:21.582Z,100061
2014-08-04T02:41:39.864Z,100066
2014-08-04T02:41:58.145Z,100058
2014-08-04T02:42:16.629Z,100052
2014-08-04T02:42:34.709Z,100061
2014-08-04T02:42:52.991Z,100052
2014-08-04T02:43:11.272Z,100058
2014-08-04T02:43:29.555Z,100058
2014-08-04T02:43:47.852Z,100058
2014-08-04T02:44:06.133Z,100069
2014-08-04T02:44:24.415Z,100063
2014-08-04T02:44:42.682Z,100058
2014-08-04T02:45:00.979Z,100069
2014-08-04T02:45:19.260Z,100058
2014-08-04T02:45:37.544Z,100061
2014-08-04T02:45:55.825Z,100061
2014-08-04T02:46:14.106Z,100061
2014-08-04T02:46:32.403Z,100058
2014-08-04T02:46:50.686Z,100069
2014-08-04T02:47:08.967Z,100063
2014-08-04T02:47:27.249Z,100058
2014-08-04T02:47:45.549Z,100063
2014-08-04T02:48:03.830Z,100055
2014-08-04T02:48:22.111Z,100063
2014-08-04T02:48:40.392Z,100058
2014-08-04T02:48:58.690Z,100063
2014-08-04T02:49:16.971Z,100063
2014-08-04T02:49:35.253Z,100069
2014-08-04T02:49:53.739Z,100058
2014-08-04T02:50:11.817Z,100069
2014-08-04T02:50:30.098Z,100061
2014-08-04T02:50:48.380Z,100058
2014-08-04T02:51:06.664Z,100049
2014-08-04T02:51:24.961Z,100055
2014-08-04T02:51:43.242Z,100058
2014-08-04T02:52:01.510Z,100052
2014-08-04T02:52:19.807Z,100058
2014-08-04T02:52:38.103Z,100049
2014-08-04T02:52:56.369Z,100040
2014-08-04T02:53:14.870Z,100058
2014-08-04T02:53:32.948Z,100046
2014-08-04T02:53:51.229Z,100046
2014-08-04T02:54:09.514Z,100049
2014-08-04T02:54:27.811Z,100046
2014-08-04T02:54:46.076Z,100046
2014-08-04T02:55:04.357Z,100055
2014-08-04T02:55:22.656Z,100049
2014-08-04T02:55:40.938Z,100052
2014-08-04T02:55:59.422Z,100049
2014-08-04T02:56:17.518Z,100046
2014-08-04T02:56:35.799Z,100046
2014-08-04T02:56:54.080Z,100040
2014-08-04T02:57:12.565Z,100043
2014-08-04T02:57:30.645Z,100038
2014-08-04T02:57:48.942Z,100038
2014-08-04T02:58:07.223Z,100052
2014-08-04T02:58:25.506Z,100052
2014-08-04T02:58:43.990Z,100052
2014-08-04T02:59:02.069Z,100055
2014-08-04T02:59:20.350Z,100052
2014-08-04T02:59:38.649Z,100049
2014-08-04T02:59:56.930Z,100049
2014-08-04T03:00:15.211Z,100055
2014-08-04T03:00:33.682Z,100055
2014-08-04T03:00:51.776Z,100049
2014-08-04T03:01:10.057Z,100055
2014-08-04T03:01:28.338Z,100055
2014-08-04T03:01:46.621Z,100049
2014-08-04T03:02:04.918Z,100052
2014-08-04T03:02:23.200Z,100052
2014-08-04T03:02:41.483Z,100063
2014-08-04T03:02:59.764Z,100049
2014-08-04T03:03:18.045Z,100049
2014-08-04T03:03:36.327Z,100063
2014-08-04T03:03:54.813Z,100069
2014-08-04T03:04:12.907Z,100052
2014-08-04T03:04:31.188Z,100049
2014-08-04T03:04:49.471Z,100066
2014-08-04T03:05:07.752Z,100055
2014-08-04T03:05:26.034Z,100055
2014-08-04T03:05:44.315Z,100046
2014-08-04T03:06:02.614Z,100055
2014-08-04T03:06:20.895Z,100052
2014-08-04T03:06:39.161Z,100063
2014-08-04T03:06:57.461Z,100063
2014-08-04T03:07:15.742Z,100049
2014-08-04T03:07:34.023Z,100061
2014-08-04T03:07:52.304Z,100063
2014-08-04T03:08:10.790Z,100058
2014-08-04T03:08:28.883Z,100061
2014-08-04T03:08:47.149Z,100055
2014-08-04T03:09:05.651Z,100058
2014-08-04T03:09:23.729Z,100061
2014-08-04T03:09:42.010Z,100061
2014-08-04T03:10:00.307Z,100066
2014-08-04T03:10:18.592Z,100063
2014-08-04T03:10:36.857Z,100061
2014-08-04T03:10:55.138Z,100063
2014-08-04T03:11:13.422Z,100061
2014-08-04T03:11:31.719Z,100061
2014-08-04T03:11:50.000Z,100055
2014-08-04T03:12:08.265Z,100055
2014-08-04T03:12:26.564Z,100055
2014-08-04T03:12:44.846Z,100069
2014-08-04T03:13:03.127Z,100058
2014-08-04T03:13:21.410Z,100061
2014-08-04T03:13:39.707Z,100052
2014-08-04T03:13:57.988Z,100049
2014-08-04T03:14:16.473Z,100052
2014-08-04T03:14:34.756Z,100058
2014-08-04T03:14:52.834Z,100049
2014-08-04T03:15:11.115Z,100049
2014-08-04T03:15:29.398Z,100055
2014-08-04T03:15:47.680Z,100049
2014-08-04T03:16:05.961Z,100058
2014-08-04T03:16:24.242Z,100049
2014-08-04T03:16:42.729Z,100061
2014-08-04T03:17:00.807Z,100055
2014-08-04T03:17:19.088Z,100049
2014-08-04T03:17:37.386Z,100038
2014-08-04T03:17:55.667Z,100040
2014-08-04T03:18:13.948Z,100046
2014-08-04T03:18:32.230Z,100043
2014-08-04T03:18:50.513Z,100043
2014-08-04T03:19:08.997Z,100038
2014-08-04T03:19:27.075Z,100038
2014-08-04T03:19:45.563Z,100032
2014-08-04T03:20:03.641Z,100029
2014-08-04T03:20:21.922Z,100043
2014-08-04T03:20:40.219Z,100043
2014-08-04T03:20:58.502Z,100038
2014-08-04T03:21:16.783Z,100038
2014-08-04T03:21:35.268Z,100043
2014-08-04T03:21:53.348Z,100040
2014-08-04T03:22:11.645Z,100038
2014-08-04T03:22:29.926Z,100038
2014-08-04T03:22:48.209Z,100043
2014-08-04T03:23:06.491Z,100038
2014-08-04T03:23:24.772Z,100043
2014-08-04T03:23:43.069Z,100038
2014-08-04T03:24:01.352Z,100040
2014-08-04T03:24:19.633Z,100035
2014-08-04T03:24:37.930Z,100035
2014-08-04T03:24:56.213Z,100040
2014-08-04T03:25:14.510Z,100043
2014-08-04T03:25:32.791Z,100038
2014-08-04T03:25:51.073Z,100038
2014-08-04T03:26:09.372Z,100032
2014-08-04T03:26:27.653Z,100040
2014-08-04T03:26:45.934Z,100040
2014-08-04T03:27:04.217Z,100026
2014-08-04T03:27:22.499Z,100035
2014-08-04T03:27:40.795Z,100040
2014-08-04T03:27:59.092Z,100040
2014-08-04T03:28:17.376Z,100046
2014-08-04T03:28:35.672Z,100043
2014-08-04T03:28:53.954Z,100043
2014-08-04T03:29:12.237Z,100043
2014-08-04T03:29:30.518Z,100043
2014-08-04T03:29:48.815Z,100049
2014-08-04T03:30:07.096Z,100049
2014-08-04T03:30:25.380Z,100049
2014-08-04T03:30:43.661Z,100043
2014-08-04T03:31:01.958Z,100049
2014-08-04T03:31:20.225Z,100046
2014-08-04T03:31:38.522Z,100049
2014-08-04T03:31:56.803Z,100043
2014-08-04T03:32:15.100Z,100046
2014-08-04T03:32:33.384Z,100043
2014-08-04T03:32:51.665Z,100049
2014-08-04T03:33:09.962Z,100049
2014-08-04T03:33:28.245Z,100052
2014-08-04T03:33:46.526Z,100038
2014-08-04T03:34:05.026Z,100049
2014-08-04T03:34:23.104Z,100052
2014-08-04T03:34:41.388Z,100052
2014-08-04T03:34:59.684Z,100055
2014-08-04T03:35:17.966Z,100049
2014-08-04T03:35:36.250Z,100046
2014-08-04T03:35:54.547Z,100049
2014-08-04T03:36:12.828Z,100055
2014-08-04T03:36:31.109Z,100058
2014-08-04T03:36:49.392Z,100049
2014-08-04T03:37:07.876Z,100055
2014-08-04T03:37:26.157Z,100049
2014-08-04T03:37:44.253Z,100046
2014-08-04T03:38:02.534Z,100049
2014-08-04T03:38:20.831Z,100055
2014-08-04T03:38:39.112Z,100061
2014-08-04T03:38:57.396Z,100061
2014-08-04T03:39:15.692Z,100049
2014-08-04T03:39:33.974Z,100055
2014-08-04T03:39:52.258Z,100049
2014-08-04T03:40:10.555Z,100055
2014-08-04T03:40:28.836Z,100043
2014-08-04T03:40:47.133Z,100058
2014-08-04T03:41:05.415Z,100049
2014-08-04T03:41:23.696Z,100040
2014-08-04T03:41:41.978Z,100046
2014-08-04T03:42:00.278Z,100043
2014-08-04T03:42:18.559Z,100043
2014-08-04T03:42:36.840Z,100049
2014-08-04T03:42:55.324Z,100049
2014-08-04T03:43:13.419Z,100049
2014-08-04T03:43:31.700Z,100046
2014-08-04T03:43:49.997Z,100043
2014-08-04T03:44:08.282Z,100049
2014-08-04T03:44:26.766Z,100046
2014-08-04T03:44:44.860Z,100046
2014-08-04T03:45:03.141Z,100046
2014-08-04T03:45:21.423Z,100055
2014-08-04T03:45:39.704Z,100049
2014-08-04T03:45:58.001Z,100049
2014-08-04T03:46:16.286Z,100058
2014-08-04T03:46:34.567Z,100046
2014-08-04T03:46:52.848Z,100058
2014-08-04T03:47:11.129Z,100043
2014-08-04T03:47:29.428Z,100049
2014-08-04T03:47:47.709Z,100049
2014-08-04T03:48:06.006Z,100040